createdAt,value
2022-11-08T00:00:02.467Z,90.72
2022-11-08T00:00:22.527Z,90.61
2022-11-08T00:00:42.603Z,90.54
2022-11-08T00:01:02.676Z,90.53
2022-11-08T00:01:22.944Z,90.62
2022-11-08T00:01:42.872Z,90.6
2022-11-08T00:02:03.099Z,90.6
2022-11-08T00:02:23.170Z,90.59
2022-11-08T00:02:43.239Z,90.51
2022-11-08T00:03:03.129Z,90.44
2022-11-08T00:03:23.257Z,90.59
2022-11-08T00:03:43.200Z,90.66
2022-11-08T00:04:03.250Z,90.68
2022-11-08T00:04:23.308Z,90.88
2022-11-08T00:04:43.379Z,90.94
2022-11-08T00:05:03.455Z,90.92
2022-11-08T00:05:23.527Z,90.91
2022-11-08T00:05:43.581Z,90.98
2022-11-08T00:06:03.633Z,91.18
2022-11-08T00:06:23.722Z,91.15
2022-11-08T00:06:43.778Z,90.93
2022-11-08T00:07:03.845Z,90.87
2022-11-08T00:07:23.911Z,91.1
2022-11-08T00:07:43.972Z,91.18
2022-11-08T00:08:04.067Z,91.18
2022-11-08T00:08:24.113Z,91.2
2022-11-08T00:08:44.179Z,91.08
2022-11-08T00:09:04.264Z,90.95
2022-11-08T00:09:24.300Z,90.91
2022-11-08T00:09:44.367Z,90.91
2022-11-08T00:10:04.414Z,90.96
2022-11-08T00:10:24.490Z,90.98
2022-11-08T00:10:44.540Z,90.93
2022-11-08T00:11:04.608Z,90.85
2022-11-08T00:11:24.665Z,90.85
2022-11-08T00:11:44.756Z,90.89
2022-11-08T00:12:04.805Z,90.94
2022-11-08T00:12:24.851Z,91.01
2022-11-08T00:12:44.916Z,91.03
2022-11-08T00:13:04.991Z,91.06
2022-11-08T00:13:25.029Z,91.11
2022-11-08T00:13:45.106Z,91.1
2022-11-08T00:14:05.156Z,91.11
2022-11-08T00:14:25.212Z,91.16
2022-11-08T00:14:45.271Z,91.11
2022-11-08T00:15:05.323Z,91.18
2022-11-08T00:15:25.370Z,91.22
2022-11-08T00:15:45.439Z,91.18
2022-11-08T00:16:05.514Z,91.19
2022-11-08T00:16:25.578Z,91.14
2022-11-08T00:16:45.670Z,91.13
2022-11-08T00:17:05.691Z,91.17
2022-11-08T00:17:25.760Z,91.15
2022-11-08T00:17:45.843Z,91.07
2022-11-08T00:18:05.931Z,91.06
2022-11-08T00:18:26.030Z,91.05
2022-11-08T00:18:46.070Z,91.18
2022-11-08T00:19:06.124Z,91.12
2022-11-08T00:19:26.181Z,91.09
2022-11-08T00:19:46.271Z,91.09
2022-11-08T00:20:06.327Z,91.17
2022-11-08T00:20:26.397Z,91.28
2022-11-08T00:20:46.464Z,91.45
2022-11-08T00:21:06.501Z,91.48
2022-11-08T00:21:26.560Z,91.53
2022-11-08T00:21:46.614Z,91.64
2022-11-08T00:22:06.695Z,91.68
2022-11-08T00:22:26.749Z,91.62
2022-11-08T00:22:46.818Z,91.58
2022-11-08T00:23:06.873Z,91.56
2022-11-08T00:23:26.936Z,91.52
2022-11-08T00:23:46.993Z,91.44
2022-11-08T00:24:07.074Z,91.43
2022-11-08T00:24:27.143Z,91.42
2022-11-08T00:24:47.200Z,91.46
2022-11-08T00:25:07.287Z,91.51
2022-11-08T00:25:27.328Z,91.64
2022-11-08T00:25:47.403Z,91.73
2022-11-08T00:26:07.458Z,91.84
2022-11-08T00:26:27.549Z,91.94
2022-11-08T00:26:47.596Z,91.91
2022-11-08T00:27:07.653Z,91.87
2022-11-08T00:27:27.735Z,91.92
2022-11-08T00:27:47.798Z,91.94
2022-11-08T00:28:07.859Z,92.01
2022-11-08T00:28:27.916Z,92.05
2022-11-08T00:28:47.962Z,91.99
2022-11-08T00:29:08.051Z,92.07
2022-11-08T00:29:28.111Z,92.13
2022-11-08T00:29:48.175Z,92.21
2022-11-08T00:30:08.220Z,92.28
2022-11-08T00:30:28.269Z,92.32
2022-11-08T00:30:48.358Z,92.33
2022-11-08T00:31:08.415Z,92.42
2022-11-08T00:31:28.484Z,92.56
2022-11-08T00:31:48.538Z,92.75
2022-11-08T00:32:08.611Z,92.77
2022-11-08T00:32:28.666Z,92.81
2022-11-08T00:32:48.736Z,92.72
2022-11-08T00:33:08.789Z,92.67
2022-11-08T00:33:28.862Z,92.64
2022-11-08T00:33:48.939Z,92.61
2022-11-08T00:34:09.012Z,92.61
2022-11-08T00:34:29.067Z,92.73
2022-11-08T00:34:49.120Z,92.79
2022-11-08T00:35:09.183Z,92.94
2022-11-08T00:35:29.243Z,92.96
2022-11-08T00:35:49.354Z,92.97
2022-11-08T00:36:09.402Z,92.98
2022-11-08T00:36:29.474Z,92.92
2022-11-08T00:36:49.539Z,92.94
2022-11-08T00:37:09.595Z,92.9
2022-11-08T00:37:29.650Z,92.99
2022-11-08T00:37:49.718Z,93.06
2022-11-08T00:38:09.766Z,93.1
2022-11-08T00:38:29.835Z,93.07
2022-11-08T00:38:49.891Z,93.06
2022-11-08T00:39:09.945Z,93.07
2022-11-08T00:39:30.027Z,93.13
2022-11-08T00:39:50.106Z,93.06
2022-11-08T00:40:10.153Z,93.01
2022-11-08T00:40:30.227Z,93.06
2022-11-08T00:40:50.310Z,93.13
2022-11-08T00:41:10.376Z,93.11
2022-11-08T00:41:30.441Z,93.02
2022-11-08T00:41:50.498Z,93.01
2022-11-08T00:42:10.565Z,93.07
2022-11-08T00:42:30.630Z,93.13
2022-11-08T00:42:50.675Z,93.06
2022-11-08T00:43:10.745Z,93.11
2022-11-08T00:43:30.800Z,93.01
2022-11-08T00:43:50.851Z,93.01
2022-11-08T00:44:10.966Z,93.06
2022-11-08T00:44:31.022Z,93.19
2022-11-08T00:44:51.085Z,93.22
2022-11-08T00:45:11.171Z,93.27
2022-11-08T00:45:31.198Z,93.32
2022-11-08T00:45:51.282Z,93.44
2022-11-08T00:46:11.332Z,93.45
2022-11-08T00:46:31.406Z,93.52
2022-11-08T00:46:51.472Z,93.6
2022-11-08T00:47:11.532Z,93.62
2022-11-08T00:47:31.579Z,93.58
2022-11-08T00:47:51.658Z,93.58
2022-11-08T00:48:11.748Z,93.62
2022-11-08T00:48:31.807Z,93.71
2022-11-08T00:48:51.837Z,93.7
2022-11-08T00:49:11.923Z,93.7
2022-11-08T00:49:31.981Z,93.71
2022-11-08T00:49:52.062Z,93.7
2022-11-08T00:50:12.135Z,93.8
2022-11-08T00:50:32.195Z,93.77
2022-11-08T00:50:52.255Z,93.87
2022-11-08T00:51:12.311Z,93.87
2022-11-08T00:51:32.355Z,93.91
2022-11-08T00:51:52.437Z,93.94
2022-11-08T00:52:12.491Z,93.92
2022-11-08T00:52:32.571Z,93.86
2022-11-08T00:52:52.653Z,93.84
2022-11-08T00:53:12.688Z,93.85
2022-11-08T00:53:32.758Z,93.82
2022-11-08T00:53:52.869Z,93.84
2022-11-08T00:54:12.935Z,93.87
2022-11-08T00:54:32.994Z,93.92
2022-11-08T00:54:53.088Z,93.94
2022-11-08T00:55:13.163Z,93.97
2022-11-08T00:55:33.199Z,93.97
2022-11-08T00:55:53.247Z,93.92
2022-11-08T00:56:13.339Z,93.91
2022-11-08T00:56:33.440Z,93.88
2022-11-08T00:56:53.484Z,93.79
2022-11-08T00:57:13.524Z,93.81
2022-11-08T00:57:47.337Z,93.88
2022-11-08T00:57:59.463Z,93.81
2022-11-08T00:58:13.738Z,93.75
2022-11-08T00:58:33.818Z,93.68
2022-11-08T00:58:53.866Z,93.58
2022-11-08T00:59:13.924Z,93.58
2022-11-08T00:59:33.982Z,93.53
2022-11-08T00:59:54.045Z,93.5
2022-11-08T01:00:14.113Z,93.46
2022-11-08T01:00:34.172Z,93.37
2022-11-08T01:00:54.324Z,93.3
2022-11-08T01:01:14.380Z,93.24
2022-11-08T01:01:34.577Z,93.25
2022-11-08T01:01:54.620Z,93.29
2022-11-08T01:02:14.568Z,93.36
2022-11-08T01:02:34.670Z,93.31
2022-11-08T01:02:54.631Z,93.32
2022-11-08T01:03:14.722Z,93.3
2022-11-08T01:03:34.789Z,93.38
2022-11-08T01:03:54.874Z,93.42
2022-11-08T01:04:14.916Z,93.51
2022-11-08T01:04:34.974Z,93.57
2022-11-08T01:04:55.048Z,93.61
2022-11-08T01:05:15.135Z,93.62
2022-11-08T01:05:35.185Z,93.67
2022-11-08T01:05:55.283Z,93.72
2022-11-08T01:06:15.320Z,93.82
2022-11-08T01:06:35.372Z,93.77
2022-11-08T01:06:55.449Z,93.71
2022-11-08T01:07:15.490Z,93.7
2022-11-08T01:07:35.566Z,93.73
2022-11-08T01:07:55.642Z,93.76
2022-11-08T01:08:16.195Z,93.73
2022-11-08T01:08:35.819Z,93.79
2022-11-08T01:08:55.857Z,93.85
2022-11-08T01:09:15.934Z,94.09
2022-11-08T01:09:35.997Z,94.39
2022-11-08T01:09:56.039Z,94.72
2022-11-08T01:10:16.136Z,94.89
2022-11-08T01:10:36.223Z,95.1
2022-11-08T01:10:56.271Z,95.22
2022-11-08T01:11:16.326Z,95.28
2022-11-08T01:11:36.370Z,95.38
2022-11-08T01:11:56.462Z,95.42
2022-11-08T01:12:16.519Z,95.4
2022-11-08T01:12:36.581Z,95.38
2022-11-08T01:12:56.656Z,95.35
2022-11-08T01:13:16.727Z,95.27
2022-11-08T01:13:36.777Z,95.21
2022-11-08T01:13:56.842Z,95.15
2022-11-08T01:14:16.894Z,95.11
2022-11-08T01:14:36.978Z,95.14
2022-11-08T01:14:57.068Z,95.09
2022-11-08T01:15:17.146Z,95.17
2022-11-08T01:15:37.230Z,95.18
2022-11-08T01:15:57.206Z,95.16
2022-11-08T01:16:17.270Z,95.11
2022-11-08T01:16:37.330Z,95.02
2022-11-08T01:16:57.387Z,94.92
2022-11-08T01:17:17.559Z,94.87
2022-11-08T01:17:37.509Z,94.83
2022-11-08T01:17:57.572Z,94.8
2022-11-08T01:18:18.089Z,94.78
2022-11-08T01:18:37.654Z,94.74
2022-11-08T01:18:57.744Z,94.81
2022-11-08T01:19:17.804Z,94.8
2022-11-08T01:19:37.875Z,94.8
2022-11-08T01:19:57.959Z,94.81
2022-11-08T01:20:18.131Z,94.89
2022-11-08T01:20:38.122Z,94.95
2022-11-08T01:20:58.192Z,94.96
2022-11-08T01:21:18.246Z,94.97
2022-11-08T01:21:38.317Z,95
2022-11-08T01:21:58.406Z,95.02
2022-11-08T01:22:18.547Z,95.1
2022-11-08T01:22:38.524Z,95.2
2022-11-08T01:22:58.595Z,95.27
2022-11-08T01:23:18.658Z,95.27
2022-11-08T01:23:38.702Z,95.24
2022-11-08T01:23:58.780Z,95.23
2022-11-08T01:24:18.844Z,95.23
2022-11-08T01:24:38.919Z,95.19
2022-11-08T01:24:58.988Z,95.18
2022-11-08T01:25:19.044Z,95.21
2022-11-08T01:25:39.099Z,95.2
2022-11-08T01:25:59.152Z,95.2
2022-11-08T01:26:19.282Z,95.16
2022-11-08T01:26:39.269Z,95.26
2022-11-08T01:26:59.341Z,95.28
2022-11-08T01:27:19.398Z,95.32
2022-11-08T01:27:39.495Z,95.3
2022-11-08T01:27:59.559Z,95.34
2022-11-08T01:28:20.110Z,95.33
2022-11-08T01:28:39.698Z,95.31
2022-11-08T01:28:59.836Z,95.28
2022-11-08T01:29:19.810Z,95.25
2022-11-08T01:29:39.914Z,95.29
2022-11-08T01:29:59.953Z,95.32
2022-11-08T01:30:20.043Z,95.27
2022-11-08T01:30:40.091Z,95.32
2022-11-08T01:31:00.151Z,95.34
2022-11-08T01:31:20.199Z,95.48
2022-11-08T01:31:40.262Z,95.57
2022-11-08T01:32:00.328Z,95.69
2022-11-08T01:32:20.447Z,95.72
2022-11-08T01:32:40.450Z,95.79
2022-11-08T01:33:00.504Z,95.83
2022-11-08T01:33:20.562Z,95.83
2022-11-08T01:33:40.595Z,95.83
2022-11-08T01:34:00.704Z,95.79
2022-11-08T01:34:20.781Z,95.75
2022-11-08T01:34:40.919Z,95.73
2022-11-08T01:35:00.919Z,95.75
2022-11-08T01:35:20.965Z,95.83
2022-11-08T01:35:41.035Z,95.89
2022-11-08T01:36:01.097Z,95.89
2022-11-08T01:36:21.149Z,95.89
2022-11-08T01:36:41.239Z,95.86
2022-11-08T01:37:01.298Z,95.92
2022-11-08T01:37:21.360Z,96.04
2022-11-08T01:37:41.426Z,96.13
2022-11-08T01:38:01.562Z,96.15
2022-11-08T01:38:21.573Z,96.17
2022-11-08T01:38:41.654Z,96.11
2022-11-08T01:39:01.699Z,96.12
2022-11-08T01:39:21.767Z,96.13
2022-11-08T01:39:41.827Z,96.17
2022-11-08T01:40:01.890Z,96.14
2022-11-08T01:40:22.009Z,96.08
2022-11-08T01:40:42.055Z,96.01
2022-11-08T01:41:02.119Z,95.99
2022-11-08T01:41:22.175Z,95.92
2022-11-08T01:41:42.226Z,95.89
2022-11-08T01:42:02.303Z,95.81
2022-11-08T01:42:22.370Z,95.74
2022-11-08T01:42:42.427Z,95.79
2022-11-08T01:43:02.489Z,95.83
2022-11-08T01:43:22.571Z,95.88
2022-11-08T01:43:42.625Z,95.95
2022-11-08T01:44:02.693Z,96.06
2022-11-08T01:44:22.744Z,96.15
2022-11-08T01:44:42.785Z,96.15
2022-11-08T01:45:02.874Z,96.13
2022-11-08T01:45:22.900Z,96.06
2022-11-08T01:45:42.993Z,96
2022-11-08T01:46:03.045Z,95.92
2022-11-08T01:46:23.105Z,95.87
2022-11-08T01:46:43.187Z,95.8
2022-11-08T01:47:03.224Z,95.74
2022-11-08T01:47:23.286Z,95.7
2022-11-08T01:47:43.345Z,95.66
2022-11-08T01:48:03.394Z,95.7
2022-11-08T01:48:23.466Z,95.66
2022-11-08T01:48:43.512Z,95.59
2022-11-08T01:49:03.603Z,95.63
2022-11-08T01:49:23.668Z,95.6
2022-11-08T01:49:43.730Z,95.58
2022-11-08T01:50:03.775Z,95.57
2022-11-08T01:50:23.845Z,95.56
2022-11-08T01:50:43.891Z,95.61
2022-11-08T01:51:03.964Z,95.65
2022-11-08T01:51:24.014Z,95.66
2022-11-08T01:51:44.095Z,95.71
2022-11-08T01:52:04.148Z,95.75
2022-11-08T01:52:24.223Z,95.78
2022-11-08T01:52:44.302Z,95.76
2022-11-08T01:53:04.346Z,95.75
2022-11-08T01:53:24.408Z,95.76
2022-11-08T01:53:44.487Z,95.86
2022-11-08T01:54:04.540Z,95.82
2022-11-08T01:54:24.639Z,95.9
2022-11-08T01:54:44.698Z,96.03
2022-11-08T01:55:04.757Z,96.06
2022-11-08T01:55:24.803Z,96.14
2022-11-08T01:55:44.891Z,96.17
2022-11-08T01:56:04.941Z,96.19
2022-11-08T01:56:24.979Z,96.15
2022-11-08T01:56:45.038Z,96.12
2022-11-08T01:57:05.092Z,96.13
2022-11-08T01:57:25.143Z,96.14
2022-11-08T01:57:45.216Z,96.18
2022-11-08T01:58:05.279Z,96.17
2022-11-08T01:58:25.370Z,96.22
2022-11-08T01:58:45.463Z,96.24
2022-11-08T01:59:05.533Z,96.34
2022-11-08T01:59:25.611Z,96.53
2022-11-08T01:59:45.673Z,96.62
2022-11-08T02:00:05.753Z,96.68
2022-11-08T02:00:25.786Z,96.58
2022-11-08T02:00:45.882Z,96.63
2022-11-08T02:01:05.991Z,96.65
2022-11-08T02:01:26.196Z,96.69
2022-11-08T02:01:46.290Z,96.69
2022-11-08T02:02:06.274Z,96.61
2022-11-08T02:02:26.249Z,96.56
2022-11-08T02:02:46.259Z,96.54
2022-11-08T02:03:06.331Z,96.59
2022-11-08T02:03:26.403Z,96.58
2022-11-08T02:03:46.445Z,96.55
2022-11-08T02:04:06.508Z,96.51
2022-11-08T02:04:26.571Z,96.5
2022-11-08T02:04:46.637Z,96.59
2022-11-08T02:05:06.689Z,96.62
2022-11-08T02:05:26.769Z,96.71
2022-11-08T02:05:46.805Z,96.76
2022-11-08T02:06:06.917Z,96.74
2022-11-08T02:06:26.959Z,96.71
2022-11-08T02:06:47.017Z,96.68
2022-11-08T02:07:07.100Z,96.74
2022-11-08T02:07:27.177Z,96.81
2022-11-08T02:07:47.285Z,96.92
2022-11-08T02:08:07.329Z,96.92
2022-11-08T02:08:27.378Z,96.9
2022-11-08T02:08:47.441Z,96.86
2022-11-08T02:09:07.504Z,96.9
2022-11-08T02:09:27.556Z,96.92
2022-11-08T02:09:47.629Z,97.06
2022-11-08T02:10:07.718Z,97.1
2022-11-08T02:10:27.788Z,97.06
2022-11-08T02:10:47.849Z,97.02
2022-11-08T02:11:07.918Z,96.97
2022-11-08T02:11:27.985Z,96.85
2022-11-08T02:11:48.037Z,96.73
2022-11-08T02:12:08.126Z,96.72
2022-11-08T02:12:28.238Z,96.66
2022-11-08T02:12:48.298Z,96.55
2022-11-08T02:13:13.371Z,96.47
2022-11-08T02:13:28.424Z,96.42
2022-11-08T02:13:48.482Z,96.37
2022-11-08T02:14:08.547Z,96.33
2022-11-08T02:14:28.590Z,96.33
2022-11-08T02:14:48.670Z,96.37
2022-11-08T02:15:08.728Z,96.27
2022-11-08T02:15:28.800Z,96.22
2022-11-08T02:15:48.898Z,96.15
2022-11-08T02:16:08.953Z,95.98
2022-11-08T02:16:28.996Z,95.89
2022-11-08T02:16:49.053Z,95.69
2022-11-08T02:17:09.139Z,95.61
2022-11-08T02:17:29.193Z,95.43
2022-11-08T02:17:49.269Z,95.3
2022-11-08T02:18:09.352Z,95.22
2022-11-08T02:18:29.431Z,95.01
2022-11-08T02:18:49.472Z,94.9
2022-11-08T02:19:09.522Z,94.9
2022-11-08T02:19:29.583Z,94.93
2022-11-08T02:19:49.653Z,94.9
2022-11-08T02:20:09.709Z,94.81
2022-11-08T02:20:29.776Z,94.79
2022-11-08T02:20:49.846Z,94.82
2022-11-08T02:21:09.911Z,94.96
2022-11-08T02:21:29.960Z,95.06
2022-11-08T02:21:50.010Z,95.11
2022-11-08T02:22:10.080Z,95.15
2022-11-08T02:22:30.138Z,95.13
2022-11-08T02:22:50.227Z,95.14
2022-11-08T02:23:10.329Z,95.19
2022-11-08T02:23:30.358Z,95.15
2022-11-08T02:23:50.425Z,95.25
2022-11-08T02:24:10.500Z,95.46
2022-11-08T02:24:30.549Z,95.61
2022-11-08T02:24:50.627Z,95.77
2022-11-08T02:25:10.703Z,96.04
2022-11-08T02:25:30.783Z,96.14
2022-11-08T02:25:50.879Z,96.23
2022-11-08T02:26:10.907Z,96.21
2022-11-08T02:26:31.008Z,96.2
2022-11-08T02:26:51.070Z,96.2
2022-11-08T02:27:11.142Z,96.16
2022-11-08T02:27:31.213Z,96.18
2022-11-08T02:27:51.296Z,96.15
2022-11-08T02:28:11.346Z,96.19
2022-11-08T02:28:31.433Z,96.23
2022-11-08T02:28:51.501Z,96.24
2022-11-08T02:29:11.566Z,96.39
2022-11-08T02:29:31.626Z,96.55
2022-11-08T02:29:51.706Z,96.7
2022-11-08T02:30:11.791Z,96.8
2022-11-08T02:30:31.835Z,96.92
2022-11-08T02:30:51.905Z,97.01
2022-11-08T02:31:11.994Z,97.06
2022-11-08T02:31:32.065Z,97.14
2022-11-08T02:31:52.134Z,97.21
2022-11-08T02:32:12.193Z,97.27
2022-11-08T02:32:32.262Z,97.25
2022-11-08T02:32:52.321Z,97.24
2022-11-08T02:33:12.374Z,97.16
2022-11-08T02:33:32.434Z,97.12
2022-11-08T02:33:52.507Z,97.16
2022-11-08T02:34:12.563Z,97.19
2022-11-08T02:34:32.646Z,97.17
2022-11-08T02:34:52.687Z,97.14
2022-11-08T02:35:12.756Z,97.16
2022-11-08T02:35:32.804Z,97.3
2022-11-08T02:35:52.856Z,97.5
2022-11-08T02:36:12.920Z,97.63
2022-11-08T02:36:32.989Z,97.73
2022-11-08T02:36:53.134Z,97.79
2022-11-08T02:37:13.128Z,97.9
2022-11-08T02:37:33.214Z,97.97
2022-11-08T02:37:53.280Z,98.01
2022-11-08T02:38:13.329Z,98.08
2022-11-08T02:38:33.392Z,98.14
2022-11-08T02:38:53.469Z,98.15
2022-11-08T02:39:13.538Z,98.2
2022-11-08T02:39:33.602Z,98.19
2022-11-08T02:39:53.669Z,98.19
2022-11-08T02:40:13.862Z,98.22
2022-11-08T02:40:33.842Z,98.22
2022-11-08T02:40:53.911Z,98.26
2022-11-08T02:41:13.980Z,98.26
2022-11-08T02:41:34.041Z,98.19
2022-11-08T02:41:54.086Z,98.18
2022-11-08T02:42:14.179Z,98.07
2022-11-08T02:42:34.232Z,97.99
2022-11-08T02:42:54.314Z,97.89
2022-11-08T02:43:14.339Z,97.83
2022-11-08T02:43:34.448Z,97.72
2022-11-08T02:43:54.508Z,97.61
2022-11-08T02:44:14.576Z,97.43
2022-11-08T02:44:34.632Z,97.29
2022-11-08T02:44:54.724Z,97.06
2022-11-08T02:45:14.769Z,96.94
2022-11-08T02:45:34.820Z,96.87
2022-11-08T02:45:54.880Z,96.73
2022-11-08T02:46:14.935Z,96.6
2022-11-08T02:46:34.991Z,96.51
2022-11-08T02:46:55.078Z,96.45
2022-11-08T02:47:15.145Z,96.32
2022-11-08T02:47:35.202Z,96.14
2022-11-08T02:47:55.339Z,95.9
2022-11-08T02:48:15.795Z,95.76
2022-11-08T02:48:35.446Z,95.68
2022-11-08T02:48:55.483Z,95.61
2022-11-08T02:49:15.568Z,95.51
2022-11-08T02:49:35.643Z,95.45
2022-11-08T02:49:55.694Z,95.39
2022-11-08T02:50:15.751Z,95.26
2022-11-08T02:50:35.816Z,95.07
2022-11-08T02:50:55.884Z,95.02
2022-11-08T02:51:15.945Z,94.87
2022-11-08T02:51:36.032Z,94.8
2022-11-08T02:51:56.111Z,94.8
2022-11-08T02:52:16.179Z,94.76
2022-11-08T02:52:36.246Z,94.72
2022-11-08T02:52:56.310Z,94.69
2022-11-08T02:53:16.356Z,94.62
2022-11-08T02:53:36.437Z,94.54
2022-11-08T02:53:56.506Z,94.45
2022-11-08T02:54:16.587Z,94.41
2022-11-08T02:54:36.622Z,94.36
2022-11-08T02:54:56.699Z,94.39
2022-11-08T02:55:16.743Z,94.35
2022-11-08T02:55:36.798Z,94.33
2022-11-08T02:55:56.876Z,94.24
2022-11-08T02:56:16.937Z,94.12
2022-11-08T02:56:36.975Z,94.08
2022-11-08T02:56:57.057Z,94.04
2022-11-08T02:57:17.116Z,94.02
2022-11-08T02:57:37.188Z,93.98
2022-11-08T02:57:57.243Z,93.93
2022-11-08T02:58:17.643Z,93.88
2022-11-08T02:58:37.351Z,93.87
2022-11-08T02:58:57.400Z,93.8
2022-11-08T02:59:17.449Z,93.76
2022-11-08T02:59:37.516Z,93.71
2022-11-08T02:59:57.601Z,93.7
2022-11-08T03:00:17.671Z,93.62
2022-11-08T03:00:37.731Z,93.58
2022-11-08T03:00:57.871Z,93.55
2022-11-08T03:01:17.935Z,93.45
2022-11-08T03:01:38.125Z,93.36
2022-11-08T03:01:58.190Z,93.28
2022-11-08T03:02:18.174Z,93.24
2022-11-08T03:02:38.305Z,93.22
2022-11-08T03:02:58.209Z,93.24
2022-11-08T03:03:18.291Z,93.29
2022-11-08T03:03:38.429Z,93.36
2022-11-08T03:03:58.419Z,93.4
2022-11-08T03:04:18.477Z,93.36
2022-11-08T03:04:38.537Z,93.35
2022-11-08T03:04:58.590Z,93.34
2022-11-08T03:05:18.673Z,93.26
2022-11-08T03:05:38.754Z,93.22
2022-11-08T03:05:58.835Z,93.21
2022-11-08T03:06:18.900Z,93.2
2022-11-08T03:06:38.955Z,93.12
2022-11-08T03:06:59.038Z,93.13
2022-11-08T03:07:24.509Z,93.03
2022-11-08T03:07:39.160Z,92.98
2022-11-08T03:07:59.215Z,92.9
2022-11-08T03:08:19.695Z,92.82
2022-11-08T03:08:39.318Z,92.75
2022-11-08T03:08:59.414Z,92.74
2022-11-08T03:09:19.487Z,92.72
2022-11-08T03:09:39.554Z,92.69
2022-11-08T03:09:59.608Z,92.67
2022-11-08T03:10:19.653Z,92.68
2022-11-08T03:10:39.710Z,92.59
2022-11-08T03:10:59.813Z,92.66
2022-11-08T03:11:19.854Z,92.66
2022-11-08T03:11:39.945Z,92.56
2022-11-08T03:12:00.005Z,92.56
2022-11-08T03:12:20.087Z,92.53
2022-11-08T03:12:40.157Z,92.48
2022-11-08T03:13:00.213Z,92.5
2022-11-08T03:13:20.271Z,92.44
2022-11-08T03:13:40.393Z,92.5
2022-11-08T03:14:00.381Z,92.5
2022-11-08T03:14:20.475Z,92.52
2022-11-08T03:14:40.566Z,92.43
2022-11-08T03:15:00.614Z,92.48
2022-11-08T03:15:20.679Z,92.47
2022-11-08T03:15:40.722Z,92.48
2022-11-08T03:16:00.791Z,92.45
2022-11-08T03:16:20.851Z,92.41
2022-11-08T03:16:40.918Z,92.37
2022-11-08T03:17:00.987Z,92.33
2022-11-08T03:17:21.022Z,92.31
2022-11-08T03:17:41.094Z,92.23
2022-11-08T03:18:01.152Z,92.24
2022-11-08T03:18:21.333Z,92.31
2022-11-08T03:18:41.320Z,92.31
2022-11-08T03:19:01.383Z,92.27
2022-11-08T03:19:21.454Z,92.29
2022-11-08T03:19:41.517Z,92.34
2022-11-08T03:20:01.576Z,92.3
2022-11-08T03:20:21.630Z,92.25
2022-11-08T03:20:41.720Z,92.31
2022-11-08T03:21:01.764Z,92.29
2022-11-08T03:21:21.833Z,92.3
2022-11-08T03:21:41.913Z,92.37
2022-11-08T03:22:01.968Z,92.39
2022-11-08T03:22:22.020Z,92.44
2022-11-08T03:22:42.079Z,92.44
2022-11-08T03:23:02.193Z,92.4
2022-11-08T03:23:22.194Z,92.35
2022-11-08T03:23:42.246Z,92.29
2022-11-08T03:24:02.345Z,92.25
2022-11-08T03:24:22.417Z,92.29
2022-11-08T03:24:42.471Z,92.39
2022-11-08T03:25:02.540Z,92.39
2022-11-08T03:25:22.636Z,92.35
2022-11-08T03:25:42.686Z,92.37
2022-11-08T03:26:02.743Z,92.34
2022-11-08T03:26:22.824Z,92.45
2022-11-08T03:26:42.887Z,92.53
2022-11-08T03:27:02.946Z,92.58
2022-11-08T03:27:23.078Z,92.57
2022-11-08T03:27:43.144Z,92.61
2022-11-08T03:28:03.220Z,92.65
2022-11-08T03:28:23.768Z,92.66
2022-11-08T03:28:43.360Z,92.7
2022-11-08T03:29:03.431Z,92.79
2022-11-08T03:29:23.482Z,92.79
2022-11-08T03:29:43.567Z,92.84
2022-11-08T03:30:03.603Z,92.82
2022-11-08T03:30:23.681Z,92.76
2022-11-08T03:30:43.739Z,92.74
2022-11-08T03:31:03.816Z,92.78
2022-11-08T03:31:23.878Z,92.86
2022-11-08T03:31:43.936Z,92.93
2022-11-08T03:32:04.016Z,92.97
2022-11-08T03:32:24.060Z,93.11
2022-11-08T03:32:44.124Z,93.04
2022-11-08T03:33:04.191Z,92.93
2022-11-08T03:33:24.278Z,92.88
2022-11-08T03:33:44.327Z,92.89
2022-11-08T03:34:04.419Z,92.88
2022-11-08T03:34:24.480Z,92.9
2022-11-08T03:34:44.540Z,92.88
2022-11-08T03:35:04.607Z,92.87
2022-11-08T03:35:24.674Z,92.9
2022-11-08T03:35:44.753Z,93.06
2022-11-08T03:36:04.820Z,93.15
2022-11-08T03:36:24.867Z,93.2
2022-11-08T03:36:44.930Z,93.2
2022-11-08T03:37:05.039Z,93.18
2022-11-08T03:37:25.103Z,93.15
2022-11-08T03:37:45.205Z,93.1
2022-11-08T03:38:05.262Z,93.06
2022-11-08T03:38:25.309Z,93.01
2022-11-08T03:38:45.395Z,93.08
2022-11-08T03:39:05.479Z,93.08
2022-11-08T03:39:25.567Z,93.07
2022-11-08T03:39:45.617Z,93.1
2022-11-08T03:40:05.697Z,93.37
2022-11-08T03:40:25.783Z,93.43
2022-11-08T03:40:45.860Z,93.39
2022-11-08T03:41:05.954Z,93.27
2022-11-08T03:41:26.005Z,93.15
2022-11-08T03:41:46.084Z,93.09
2022-11-08T03:42:06.155Z,92.99
2022-11-08T03:42:26.213Z,92.95
2022-11-08T03:42:46.268Z,92.9
2022-11-08T03:43:06.414Z,92.93
2022-11-08T03:43:26.429Z,93.01
2022-11-08T03:43:46.500Z,93.02
2022-11-08T03:44:06.548Z,93.23
2022-11-08T03:44:26.614Z,93.33
2022-11-08T03:44:46.687Z,93.47
2022-11-08T03:45:06.781Z,93.52
2022-11-08T03:45:26.866Z,93.45
2022-11-08T03:45:46.958Z,93.38
2022-11-08T03:46:07.046Z,93.41
2022-11-08T03:46:27.123Z,93.53
2022-11-08T03:46:47.209Z,93.55
2022-11-08T03:47:07.297Z,93.55
2022-11-08T03:47:27.499Z,93.52
2022-11-08T03:47:47.496Z,93.61
2022-11-08T03:48:07.596Z,93.7
2022-11-08T03:48:27.676Z,93.71
2022-11-08T03:48:47.758Z,93.72
2022-11-08T03:49:07.843Z,93.75
2022-11-08T03:49:27.883Z,93.84
2022-11-08T03:49:47.997Z,93.84
2022-11-08T03:50:08.077Z,93.95
2022-11-08T03:50:28.142Z,93.86
2022-11-08T03:50:48.213Z,93.8
2022-11-08T03:51:08.262Z,93.7
2022-11-08T03:51:28.326Z,93.65
2022-11-08T03:51:48.411Z,93.6
2022-11-08T03:52:08.515Z,93.57
2022-11-08T03:52:28.576Z,93.66
2022-11-08T03:52:48.638Z,93.65
2022-11-08T03:53:08.674Z,93.61
2022-11-08T03:53:28.755Z,93.7
2022-11-08T03:53:48.900Z,93.68
2022-11-08T03:54:08.899Z,93.68
2022-11-08T03:54:28.987Z,93.69
2022-11-08T03:54:49.075Z,93.68
2022-11-08T03:55:09.126Z,93.62
2022-11-08T03:55:29.203Z,93.52
2022-11-08T03:55:49.290Z,93.47
2022-11-08T03:56:09.358Z,93.51
2022-11-08T03:56:29.519Z,93.54
2022-11-08T03:56:49.496Z,93.58
2022-11-08T03:57:09.587Z,93.5
2022-11-08T03:57:29.654Z,93.41
2022-11-08T03:57:49.746Z,93.3
2022-11-08T03:58:09.833Z,93.21
2022-11-08T03:58:29.882Z,93.17
2022-11-08T03:58:49.959Z,93.1
2022-11-08T03:59:10.022Z,93.13
2022-11-08T03:59:30.089Z,93.17
2022-11-08T03:59:50.164Z,93.09
2022-11-08T04:00:10.231Z,93.2
2022-11-08T04:00:30.283Z,93.19
2022-11-08T04:00:50.456Z,93.21
2022-11-08T04:01:10.507Z,93.32
2022-11-08T04:01:30.601Z,93.43
2022-11-08T04:01:50.787Z,93.49
2022-11-08T04:02:10.780Z,93.5
2022-11-08T04:02:30.901Z,93.51
2022-11-08T04:02:50.860Z,93.52
2022-11-08T04:03:10.893Z,93.57
2022-11-08T04:03:30.995Z,93.58
2022-11-08T04:03:51.071Z,93.55
2022-11-08T04:04:11.161Z,93.53
2022-11-08T04:04:31.249Z,93.57
2022-11-08T04:04:51.322Z,93.57
2022-11-08T04:05:11.412Z,93.52
2022-11-08T04:05:31.481Z,93.5
2022-11-08T04:05:51.549Z,93.56
2022-11-08T04:06:11.635Z,93.53
2022-11-08T04:06:31.691Z,93.51
2022-11-08T04:06:51.775Z,93.63
2022-11-08T04:07:11.837Z,93.83
2022-11-08T04:07:31.892Z,93.99
2022-11-08T04:07:51.960Z,93.98
2022-11-08T04:08:12.058Z,94.02
2022-11-08T04:08:32.114Z,94.03
2022-11-08T04:08:52.214Z,93.98
2022-11-08T04:09:12.258Z,93.99
2022-11-08T04:09:32.339Z,94.05
2022-11-08T04:09:52.413Z,94.01
2022-11-08T04:10:12.518Z,93.96
2022-11-08T04:10:32.599Z,94.09
2022-11-08T04:10:52.657Z,94.21
2022-11-08T04:11:12.754Z,94.33
2022-11-08T04:11:32.819Z,94.38
2022-11-08T04:11:52.915Z,94.37
2022-11-08T04:12:12.981Z,94.34
2022-11-08T04:12:33.077Z,94.31
2022-11-08T04:12:53.187Z,94.33
2022-11-08T04:13:13.253Z,94.31
2022-11-08T04:13:33.336Z,94.42
2022-11-08T04:13:53.419Z,94.45
2022-11-08T04:14:13.486Z,94.5
2022-11-08T04:14:33.566Z,94.53
2022-11-08T04:14:53.636Z,94.57
2022-11-08T04:15:13.709Z,94.52
2022-11-08T04:15:33.748Z,94.46
2022-11-08T04:15:53.991Z,94.43
2022-11-08T04:16:17.726Z,94.42
2022-11-08T04:16:34.150Z,94.4
2022-11-08T04:16:54.087Z,94.33
2022-11-08T04:17:14.120Z,94.41
2022-11-08T04:17:34.172Z,94.45
2022-11-08T04:17:54.272Z,94.42
2022-11-08T04:18:14.367Z,94.42
2022-11-08T04:18:34.441Z,94.57
2022-11-08T04:18:54.524Z,94.55
2022-11-08T04:19:14.597Z,94.6